Time;durP1;ratioP1;P1;durP2;ratioP2;P2;SDS_P1;SDS_P2;PMS_P1;PMS_P2;Temp;Humidity;BMP_temperature;BMP_pressure;BME280_temperature;BME280_humidity;BME280_pressure;Samples;Min_cycle;Max_cycle;Signal;HPM_P1;HPM_P2
2022/02/21 00:01:54;;;;;;;3.95;2.33;;;;;;;6.73;73.00;93964.00;5063373;28;20017;-78
2022/02/21 00:04:20;;;;;;;5.15;2.30;;;;;;;6.77;72.40;93965.00;5063432;28;20052;-78
2022/02/21 00:06:45;;;;;;;5.18;2.60;;;;;;;6.92;72.06;93965.88;5063289;28;20020;-78
2022/02/21 00:09:11;;;;;;;4.57;2.60;;;;;;;7.03;72.16;93960.13;5063395;28;20036;-78
2022/02/21 00:11:37;;;;;;;4.45;2.40;;;;;;;7.10;71.62;93962.41;5063263;28;20071;-78
2022/02/21 00:14:03;;;;;;;6.93;2.67;;;;;;;7.22;71.62;93956.69;5063281;28;20021;-78
2022/02/21 00:16:29;;;;;;;6.65;2.35;;;;;;;7.28;71.10;93966.13;5063170;28;20032;-82
2022/02/21 00:18:54;;;;;;;13.98;3.33;;;;;;;7.35;71.47;93966.56;5063038;28;20162;-77
2022/02/21 00:21:19;;;;;;;5.35;2.28;;;;;;;7.41;71.29;93977.88;5063192;28;20100;-77
2022/02/21 00:23:45;;;;;;;5.90;2.53;;;;;;;7.52;70.70;93979.28;5063023;28;20036;-77
2022/02/21 00:26:11;;;;;;;6.13;3.10;;;;;;;7.61;70.57;93971.44;5063257;28;20017;-77
2022/02/21 00:28:36;;;;;;;5.22;2.72;;;;;;;7.68;69.72;93968.41;5062843;28;20327;-76
2022/02/21 00:31:02;;;;;;;6.28;2.80;;;;;;;7.71;69.45;93967.81;5062980;28;20100;-77
2022/02/21 00:33:27;;;;;;;7.50;3.47;;;;;;;7.77;69.54;93954.16;5062954;28;20048;-77
2022/02/21 00:35:53;;;;;;;12.55;3.53;;;;;;;7.85;69.69;93952.72;5063081;28;20036;-77
2022/02/21 00:38:18;;;;;;;6.20;3.50;;;;;;;7.90;69.45;93938.59;5063075;28;20299;-78
2022/02/21 00:40:44;;;;;;;5.63;3.15;;;;;;;7.91;69.53;93935.63;5062986;28;20090;-78
2022/02/21 00:43:10;;;;;;;5.70;3.55;;;;;;;7.94;69.43;93927.06;5063049;28;20199;-78
2022/02/21 00:45:35;;;;;;;6.22;2.83;;;;;;;7.93;69.58;93924.72;5062826;28;20033;-78
2022/02/21 00:48:01;;;;;;;7.00;3.10;;;;;;;7.90;69.81;93934.06;5062755;28;20062;-78
2022/02/21 00:50:26;;;;;;;6.35;3.03;;;;;;;7.94;69.25;93918.34;5062640;28;20025;-78
2022/02/21 00:52:52;;;;;;;6.88;3.17;;;;;;;7.95;69.36;93930.50;5062326;28;20111;-77
2022/02/21 00:55:17;;;;;;;6.47;3.42;;;;;;;7.95;69.67;93918.00;5062759;28;20231;-78
2022/02/21 00:57:43;;;;;;;6.30;2.95;;;;;;;7.95;69.41;93920.66;5062740;28;20092;-78
2022/02/21 01:00:09;;;;;;;6.13;3.28;;;;;;;7.97;69.67;93920.38;5062749;28;20021;-78
2022/02/21 01:02:35;;;;;;;7.53;3.70;;;;;;;7.93;69.45;93919.41;5061346;28;20063;-78
2022/02/21 01:05:01;;;;;;;6.93;4.20;;;;;;;7.91;69.54;93911.72;5062434;28;20246;-78
2022/02/21 01:07:27;;;;;;;6.88;3.72;;;;;;;7.91;69.24;93900.34;5061175;28;20031;-79
2022/02/21 01:09:52;;;;;;;7.43;4.05;;;;;;;7.89;69.41;93907.81;5062263;28;20021;-79
2022/02/21 01:12:18;;;;;;;9.60;4.00;;;;;;;7.81;69.24;93910.03;5062380;28;20210;-79
2022/02/21 01:14:45;;;;;;;6.38;4.00;;;;;;;7.80;69.28;93910.34;5062583;28;20290;-79
2022/02/21 01:17:10;;;;;;;8.38;3.65;;;;;;;7.76;69.28;93904.06;5062565;28;20088;-79
2022/02/21 01:19:36;;;;;;;4.97;2.92;;;;;;;7.72;69.11;93906.50;5062263;28;20027;-78
2022/02/21 01:22:03;;;;;;;6.50;3.10;;;;;;;7.62;68.98;93896.09;5062430;28;20020;-78
2022/02/21 01:24:30;;;;;;;6.65;3.33;;;;;;;7.58;68.98;93895.09;5062005;28;20369;-77
2022/02/21 01:26:55;;;;;;;6.82;3.20;;;;;;;7.53;68.93;93897.84;5062173;28;20040;-78
2022/02/21 01:29:21;;;;;;;8.43;4.03;;;;;;;7.46;69.16;93887.59;5061899;28;20017;-78
2022/02/21 01:31:47;;;;;;;7.95;4.30;;;;;;;7.34;69.41;93895.25;5061365;28;20107;-79
2022/02/21 01:34:14;;;;;;;10.43;5.38;;;;;;;7.28;69.31;93894.53;5062235;28;20021;-78
2022/02/21 01:36:40;;;;;;;7.90;3.35;;;;;;;7.13;69.25;93900.09;5062010;28;20192;-75
2022/02/21 01:39:09;;;;;;;6.13;3.20;;;;;;;7.10;69.19;93908.63;5062120;28;20044;-76
2022/02/21 01:41:35;;;;;;;6.55;3.08;;;;;;;6.98;69.47;93899.28;5062206;28;20017;-76
2022/02/21 01:44:11;;;;;;;6.53;3.53;;;;;;;6.99;69.25;93900.06;5061900;28;20252;-76
2022/02/21 01:46:38;;;;;;;6.65;2.92;;;;;;;6.99;68.96;93902.69;5061990;28;20021;-76
2022/02/21 01:49:05;;;;;;;7.60;2.97;;;;;;;6.98;69.07;93907.22;5061925;28;20084;-76
2022/02/21 01:51:32;;;;;;;5.13;2.60;;;;;;;6.94;69.15;93902.78;5061988;28;20021;-76
2022/02/21 01:53:57;;;;;;;5.35;3.10;;;;;;;6.95;69.26;93891.09;5062083;28;20029;-76
2022/02/21 01:56:26;;;;;;;6.18;2.88;;;;;;;6.92;69.71;93889.03;5061957;28;20092;-76
2022/02/21 01:58:52;;;;;;;4.47;3.15;;;;;;;6.92;69.42;93886.38;5062026;28;20084;-76
2022/02/21 02:01:19;;;;;;;5.45;3.00;;;;;;;6.88;69.35;93872.13;5062126;28;20315;-78
2022/02/21 02:03:44;;;;;;;5.75;2.97;;;;;;;6.84;69.65;93869.28;5063142;28;20017;-78
2022/02/21 02:06:10;;;;;;;7.93;3.58;;;;;;;6.84;69.74;93858.69;5066075;28;20128;-78
2022/02/21 02:08:36;;;;;;;12.38;5.43;;;;;;;6.82;69.62;93850.25;5065820;28;20027;-77
2022/02/21 02:11:02;;;;;;;15.07;5.53;;;;;;;6.81;69.56;93856.59;5065761;28;20326;-77
2022/02/21 02:13:28;;;;;;;9.98;4.65;;;;;;;6.77;69.65;93855.63;5065570;28;20300;-78
2022/02/21 02:15:54;;;;;;;8.65;4.50;;;;;;;6.70;69.97;93847.25;5065523;28;20032;-78
2022/02/21 02:18:23;;;;;;;7.90;3.55;;;;;;;6.66;69.78;93846.25;5065719;28;20025;-78
2022/02/21 02:20:49;;;;;;;7.40;3.72;;;;;;;6.60;69.56;93843.69;5065522;28;20036;-78
2022/02/21 02:23:15;;;;;;;7.10;4.07;;;;;;;6.56;69.82;93840.03;5065413;28;20028;-78
2022/02/21 02:25:41;;;;;;;7.90;3.58;;;;;;;6.51;69.90;93834.78;5065395;28;20037;-78
2022/02/21 02:28:07;;;;;;;6.72;3.97;;;;;;;6.50;70.05;93835.88;5065231;28;20040;-77
2022/02/21 02:30:33;;;;;;;7.75;4.25;;;;;;;6.50;70.02;93840.41;5065488;28;20036;-79
2022/02/21 02:32:58;;;;;;;7.43;4.15;;;;;;;6.50;69.63;93825.28;5065367;28;20057;-79
2022/02/21 02:35:27;;;;;;;8.95;4.45;;;;;;;6.49;69.49;93817.63;5065241;28;20035;-79
2022/02/21 02:37:52;;;;;;;9.20;3.80;;;;;;;6.49;69.59;93828.22;5065061;28;20021;-79
2022/02/21 02:40:18;;;;;;;8.00;4.45;;;;;;;6.45;69.65;93824.56;5063914;28;20025;-78
2022/02/21 02:42:43;;;;;;;8.48;4.85;;;;;;;6.37;69.79;93816.22;5065300;28;20266;-79
2022/02/21 02:45:09;;;;;;;9.00;5.25;;;;;;;6.37;70.03;93815.41;5065194;28;20025;-79
2022/02/21 02:47:34;;;;;;;10.38;5.30;;;;;;;6.38;69.93;93827.59;5064927;28;20028;-79
2022/02/21 02:50:00;;;;;;;8.57;4.80;;;;;;;6.38;69.91;93828.38;5064893;28;20025;-79
2022/02/21 02:52:25;;;;;;;8.63;4.30;;;;;;;6.36;70.14;93827.88;5064903;28;20025;-78
2022/02/21 02:54:51;;;;;;;7.00;4.63;;;;;;;6.37;70.32;93836.59;5064781;28;20052;-79
2022/02/21 02:57:16;;;;;;;7.22;4.55;;;;;;;6.38;70.19;93833.66;5064635;28;20118;-79
2022/02/21 02:59:42;;;;;;;6.00;3.85;;;;;;;6.35;70.15;93838.75;5065040;28;20017;-80
2022/02/21 03:02:07;;;;;;;7.20;3.83;;;;;;;6.31;70.39;93838.56;5064592;28;20036;-80
2022/02/21 03:04:33;;;;;;;7.70;3.85;;;;;;;6.38;70.40;93843.47;5064598;28;20025;-80
2022/02/21 03:07:00;;;;;;;8.25;4.00;;;;;;;6.37;70.59;93845.34;5064430;28;20028;-79
2022/02/21 03:09:26;;;;;;;8.77;3.90;;;;;;;6.36;70.82;93845.63;5064469;28;20024;-78
2022/02/21 03:11:52;;;;;;;6.90;4.03;;;;;;;6.37;70.94;93834.75;5064267;28;20041;-78
2022/02/21 03:14:17;;;;;;;7.15;3.92;;;;;;;6.41;71.05;93837.59;5064396;28;20094;-80
2022/02/21 03:16:43;;;;;;;10.88;4.72;;;;;;;6.42;71.00;93849.78;5064826;28;20067;-78
2022/02/21 03:19:08;;;;;;;8.55;4.53;;;;;;;6.46;71.10;93840.19;5064114;28;20095;-78
2022/02/21 03:21:34;;;;;;;11.52;4.13;;;;;;;6.49;71.08;93834.28;5064402;28;20052;-78
2022/02/21 03:23:59;;;;;;;11.23;5.55;;;;;;;6.53;71.19;93837.94;5063366;28;20110;-78
2022/02/21 03:26:25;;;;;;;8.50;4.20;;;;;;;6.55;71.15;93827.84;5064129;28;20025;-78
2022/02/21 03:28:50;;;;;;;12.70;5.88;;;;;;;6.57;71.15;93815.13;5064131;28;20021;-77
2022/02/21 03:31:16;;;;;;;10.77;4.85;;;;;;;6.60;71.09;93814.53;5063210;28;20024;-77
2022/02/21 03:33:42;;;;;;;13.95;5.10;;;;;;;6.60;71.18;93814.53;5064119;28;20096;-77
2022/02/21 03:36:08;;;;;;;8.82;4.50;;;;;;;6.64;71.24;93809.47;5063851;28;20087;-78
2022/02/21 03:38:33;;;;;;;9.70;4.35;;;;;;;6.66;71.12;93815.25;5064060;28;20017;-82
2022/02/21 03:40:59;;;;;;;8.00;3.78;;;;;;;6.66;71.07;93798.59;5063678;28;20187;-82
2022/02/21 03:43:24;;;;;;;8.35;4.43;;;;;;;6.69;71.36;93801.44;5063773;28;20020;-82
2022/02/21 03:45:50;;;;;;;7.63;4.45;;;;;;;6.70;71.08;93796.94;5064003;28;20330;-82
2022/02/21 03:48:16;;;;;;;8.25;4.93;;;;;;;6.76;71.43;93806.38;5062524;28;20055;-81
2022/02/21 03:50:42;;;;;;;8.35;4.40;;;;;;;6.79;71.40;93803.13;5063479;28;20028;-82
2022/02/21 03:53:08;;;;;;;9.85;5.03;;;;;;;6.80;71.04;93805.50;5063692;28;20088;-82
2022/02/21 03:55:33;;;;;;;7.90;4.50;;;;;;;6.82;71.01;93807.88;5063639;28;20017;-84
2022/02/21 03:57:59;;;;;;;7.50;4.45;;;;;;;6.85;71.15;93809.91;5063631;28;20013;-82
2022/02/21 04:00:24;;;;;;;17.55;4.75;;;;;;;6.84;71.14;93789.81;5063658;28;20261;-82
2022/02/21 04:02:50;;;;;;;9.07;4.60;;;;;;;6.84;71.12;93792.47;5063774;28;20311;-82
2022/02/21 04:05:15;;;;;;;10.30;5.20;;;;;;;6.83;70.99;93780.28;5063631;28;20031;-82
2022/02/21 04:07:42;;;;;;;15.18;7.22;;;;;;;6.82;70.87;93790.09;5062334;28;20238;-82
2022/02/21 04:10:20;;;;;;;18.83;8.50;;;;;;;6.85;70.80;93788.72;5063260;28;20037;-81
2022/02/21 04:12:46;;;;;;;21.52;10.55;;;;;;;6.85;70.59;93788.72;5063510;28;20343;-82
2022/02/21 04:15:12;;;;;;;22.10;10.25;;;;;;;6.89;70.63;93781.75;5063496;28;20308;-82
2022/02/21 04:17:56;;;;;;;19.90;9.65;;;;;;;6.91;70.36;93782.25;5063338;28;20021;-85
2022/02/21 04:20:27;;;;;;;20.83;9.15;;;;;;;6.87;70.59;93781.28;5063031;28;20017;-84
2022/02/21 04:22:53;;;;;;;17.40;8.55;;;;;;;6.85;70.61;93783.41;5061925;28;20192;-84
2022/02/21 04:25:18;;;;;;;17.85;9.48;;;;;;;6.85;70.65;93778.13;5063210;28;20094;-84
2022/02/21 04:27:49;;;;;;;15.68;8.25;;;;;;;6.83;70.32;93774.97;5062410;28;20095;-82
2022/02/21 04:30:17;;;;;;;19.90;9.07;;;;;;;6.82;70.53;93766.25;5061811;28;20207;-82
2022/02/21 04:32:43;;;;;;;15.45;8.63;;;;;;;6.83;70.51;93762.50;5063087;28;20016;-83
2022/02/21 04:35:10;;;;;;;21.20;9.82;;;;;;;6.80;70.44;93764.97;5063114;28;20025;-83
2022/02/21 04:37:36;;;;;;;18.20;8.77;;;;;;;6.80;70.41;93765.75;5063188;28;20044;-82
2022/02/21 04:40:08;;;;;;;18.10;9.05;;;;;;;6.77;70.45;93766.31;5063045;28;20037;-83
2022/02/21 04:42:33;;;;;;;16.50;7.70;;;;;;;6.75;70.37;93765.06;5062612;28;20021;-82
2022/02/21 04:45:00;;;;;;;13.45;7.90;;;;;;;6.74;70.31;93760.84;5062905;28;20091;-80
2022/02/21 04:47:25;;;;;;;16.50;7.35;;;;;;;6.73;70.07;93765.34;5062717;28;20032;-80
2022/02/21 04:49:51;;;;;;;17.70;8.00;;;;;;;6.71;69.83;93766.72;5062931;28;20040;-80
2022/02/21 04:52:17;;;;;;;14.45;7.30;;;;;;;6.67;69.92;93750.59;5063060;28;20044;-82
2022/02/21 04:54:42;;;;;;;12.95;7.45;;;;;;;6.65;69.99;93747.47;5062708;28;20016;-79
2022/02/21 04:57:08;;;;;;;12.45;6.05;;;;;;;6.61;70.05;93741.97;5062763;28;20308;-79
2022/02/21 04:59:33;;;;;;;10.35;6.30;;;;;;;6.63;69.83;93741.66;5062815;28;20017;-80
2022/02/21 05:02:00;;;;;;;13.82;6.55;;;;;;;6.62;69.95;93748.84;5062767;28;20037;-80
2022/02/21 05:04:26;;;;;;;13.32;7.20;;;;;;;6.61;69.74;93741.97;5062701;28;20261;-80
2022/02/21 05:06:52;;;;;;;15.50;7.57;;;;;;;6.63;69.66;93746.97;5062719;28;20024;-81
2022/02/21 05:09:17;;;;;;;16.35;8.40;;;;;;;6.59;69.87;93744.13;5062787;28;20086;-80
2022/02/21 05:11:43;;;;;;;15.20;8.40;;;;;;;6.56;70.00;93751.88;5061458;28;20072;-80
2022/02/21 05:14:11;;;;;;;14.90;7.30;;;;;;;6.55;69.88;93737.81;5062726;28;20311;-81
2022/02/21 05:16:36;;;;;;;13.23;6.68;;;;;;;6.55;69.69;93737.03;5062601;28;20024;-81
2022/02/21 05:19:02;;;;;;;15.05;6.32;;;;;;;6.56;69.64;93736.75;5062604;28;20021;-81
2022/02/21 05:21:31;;;;;;;12.60;6.53;;;;;;;6.51;69.54;93734.19;5062537;28;20028;-82
2022/02/21 05:23:58;;;;;;;12.00;6.60;;;;;;;6.49;69.33;93733.69;5062480;28;20017;-81
2022/02/21 05:26:24;;;;;;;16.58;8.95;;;;;;;6.41;69.64;93737.00;5062361;28;20020;-81
2022/02/21 05:28:50;;;;;;;17.80;8.10;;;;;;;6.40;69.85;93735.44;5062499;28;20196;-79
2022/02/21 05:31:16;;;;;;;14.38;7.88;;;;;;;6.40;70.20;93727.50;5062364;28;20020;-79
2022/02/21 05:33:41;;;;;;;20.17;8.77;;;;;;;6.40;70.02;93730.13;5062168;28;20096;-79
2022/02/21 05:36:07;;;;;;;18.30;9.00;;;;;;;6.42;70.12;93733.28;5062242;28;20049;-86
2022/02/21 05:38:32;;;;;;;13.55;7.30;;;;;;;6.42;69.94;93728.75;5063331;28;20224;-86
2022/02/21 05:40:58;;;;;;;16.15;6.95;;;;;;;6.39;70.18;93731.19;5066299;28;20029;-86
2022/02/21 05:43:23;;;;;;;14.52;7.10;;;;;;;6.35;70.08;93722.25;5066357;28;20032;-80
2022/02/21 05:45:49;;;;;;;12.18;6.32;;;;;;;6.31;70.13;93735.31;5066334;28;20028;-81
2022/02/21 05:48:14;;;;;;;18.40;7.63;;;;;;;6.33;70.37;93737.66;5065785;28;20028;-81
2022/02/21 05:50:40;;;;;;;15.90;7.97;;;;;;;6.31;70.23;93732.66;5066248;28;20032;-78
2022/02/21 05:53:05;;;;;;;18.30;9.43;;;;;;;6.28;70.47;93732.44;5066182;28;20095;-80
2022/02/21 05:55:31;;;;;;;20.92;9.68;;;;;;;6.28;70.91;93745.69;5066197;28;20029;-81
2022/02/21 05:58:00;;;;;;;19.38;9.35;;;;;;;6.28;70.92;93738.53;5066251;28;20197;-82
2022/02/21 06:00:26;;;;;;;17.30;8.45;;;;;;;6.27;71.07;93736.97;5065962;28;20258;-78
2022/02/21 06:02:52;;;;;;;18.63;8.73;;;;;;;6.29;71.28;93736.66;5065912;28;20024;-80
2022/02/21 06:05:17;;;;;;;16.88;8.95;;;;;;;6.31;71.38;93722.09;5065836;28;20047;-83
2022/02/21 06:07:43;;;;;;;21.73;11.20;;;;;;;6.35;71.55;93727.56;5065575;28;20106;-80
2022/02/21 06:10:09;;;;;;;20.67;10.00;;;;;;;6.36;71.29;93715.91;5065684;28;20319;-81
2022/02/21 06:12:34;;;;;;;15.70;8.27;;;;;;;6.36;71.01;93698.16;5065529;28;20065;-82
2022/02/21 06:15:00;;;;;;;28.55;14.95;;;;;;;6.38;71.03;93698.66;5065390;28;20331;-82
2022/02/21 06:17:25;;;;;;;94.40;39.35;;;;;;;6.36;70.94;93703.44;5065767;28;20028;-78
2022/02/21 06:19:51;;;;;;;141.65;54.60;;;;;;;6.43;70.63;93698.59;5065671;28;20039;-78
2022/02/21 06:22:20;;;;;;;77.40;33.90;;;;;;;6.48;70.57;93695.06;5065828;28;20246;-78
2022/02/21 06:24:46;;;;;;;47.95;25.60;;;;;;;6.46;70.59;93691.91;5065488;28;20384;-79
2022/02/21 06:27:11;;;;;;;38.60;22.80;;;;;;;6.52;70.50;93684.69;5065303;28;20029;-77
2022/02/21 06:29:37;;;;;;;36.03;21.25;;;;;;;6.59;70.11;93679.78;5065372;28;20028;-77
2022/02/21 06:32:03;;;;;;;30.15;21.02;;;;;;;6.63;70.20;93686.88;5065402;28;20096;-78
2022/02/21 06:34:29;;;;;;;31.67;21.38;;;;;;;6.67;69.73;93676.44;5065231;28;20102;-78
2022/02/21 06:36:54;;;;;;;34.72;18.75;;;;;;;6.78;69.75;93677.06;5064925;28;20024;-78
2022/02/21 06:39:20;;;;;;;30.20;16.35;;;;;;;6.87;69.59;93671.88;5065249;28;20315;-83
2022/02/21 06:41:50;;;;;;;26.27;15.93;;;;;;;6.90;69.48;93680.03;5065044;28;20039;-82
2022/02/21 06:44:16;;;;;;;25.70;15.90;;;;;;;6.98;69.47;93678.53;5065073;28;20222;-80
2022/02/21 06:46:42;;;;;;;30.52;17.00;;;;;;;7.12;69.43;93681.19;5063557;28;20342;-80
2022/02/21 06:49:09;;;;;;;25.13;16.17;;;;;;;7.21;69.53;93674.91;5064352;28;20021;-80
2022/02/21 06:51:37;;;;;;;25.40;15.32;;;;;;;7.31;69.33;93678.44;5064922;28;20102;-80
2022/02/21 06:54:04;;;;;;;25.88;13.57;;;;;;;7.43;69.01;93666.25;5065009;28;20029;-81
2022/02/21 06:56:30;;;;;;;20.58;13.73;;;;;;;7.52;68.94;93668.97;5064738;28;20092;-75
2022/02/21 06:58:55;;;;;;;22.40;12.48;;;;;;;7.60;68.76;93659.53;5064472;28;20299;-77
2022/02/21 07:01:21;;;;;;;19.25;11.75;;;;;;;7.70;68.63;93661.19;5064557;28;20090;-77
2022/02/21 07:03:46;;;;;;;20.00;10.48;;;;;;;7.79;68.35;93669.97;5064856;28;20048;-79
2022/02/21 07:06:12;;;;;;;18.33;11.30;;;;;;;7.90;68.06;93658.06;5064320;28;20035;-78
2022/02/21 07:08:37;;;;;;;17.60;9.68;;;;;;;8.03;67.82;93662.50;5064066;28;20033;-77
2022/02/21 07:11:03;;;;;;;17.45;10.20;;;;;;;8.12;67.49;93648.50;5064460;28;20025;-77
2022/02/21 07:13:29;;;;;;;18.30;8.70;;;;;;;8.22;66.98;93665.00;5064326;28;20045;-78
2022/02/21 07:15:55;;;;;;;18.35;9.45;;;;;;;8.31;66.62;93651.78;5064498;28;20021;-78
2022/02/21 07:18:20;;;;;;;22.55;9.52;;;;;;;8.44;66.09;93647.50;5064151;28;20088;-79
2022/02/21 07:20:46;;;;;;;15.57;9.05;;;;;;;8.44;65.37;93650.16;5064112;28;20025;-78
2022/02/21 07:23:12;;;;;;;13.85;8.45;;;;;;;8.50;65.11;93633.00;5064208;28;20036;-78
2022/02/21 07:25:37;;;;;;;18.38;8.55;;;;;;;8.55;64.66;93646.16;5064163;28;20254;-79
2022/02/21 07:28:03;;;;;;;14.95;9.77;;;;;;;8.56;64.54;93637.09;5063818;28;20021;-78
2022/02/21 07:30:30;;;;;;;15.05;9.40;;;;;;;8.58;64.88;93644.75;5062853;28;20036;-85
2022/02/21 07:32:56;;;;;;;21.20;9.88;;;;;;;8.58;64.69;93629.59;5065326;28;20029;-87
2022/02/21 07:35:22;;;;;;;20.92;10.65;;;;;;;8.58;64.74;93631.47;5064577;28;20031;-77
2022/02/21 07:37:47;;;;;;;25.38;10.70;;;;;;;8.52;64.85;93630.81;5062878;28;20029;-77
2022/02/21 07:40:14;;;;;;;16.00;10.30;;;;;;;8.48;64.67;93624.56;5063743;28;20025;-77
2022/02/21 07:42:42;;;;;;;17.30;10.10;;;;;;;8.47;64.79;93624.84;5063434;28;20040;-76
2022/02/21 07:45:09;;;;;;;24.13;10.27;;;;;;;8.46;65.27;93620.63;5063639;28;20048;-75
2022/02/21 07:47:48;;;;;;;19.40;10.18;;;;;;;8.49;65.36;93620.81;5063698;28;20033;-74
2022/02/21 07:50:14;;;;;;;19.02;10.57;;;;;;;8.51;65.35;93618.66;5062993;28;20100;-79
2022/02/21 07:52:40;;;;;;;17.65;11.23;;;;;;;8.50;65.44;93603.78;5062925;28;20318;-76
2022/02/21 07:55:06;;;;;;;26.05;10.68;;;;;;;8.42;65.02;93600.00;5063696;28;20032;-75
2022/02/21 07:57:32;;;;;;;25.77;12.10;;;;;;;8.48;65.23;93600.66;5063789;28;20044;-74
2022/02/21 07:59:57;;;;;;;19.83;11.13;;;;;;;8.52;65.24;93598.94;5063292;28;20024;-74
2022/02/21 08:02:24;;;;;;;18.15;10.23;;;;;;;8.54;65.06;93602.09;5062822;28;20056;-74
2022/02/21 08:04:49;;;;;;;14.80;9.40;;;;;;;8.58;64.73;93594.28;5063508;28;20035;-74
2022/02/21 08:07:15;;;;;;;23.42;9.63;;;;;;;8.48;64.46;93595.34;5063314;28;20024;-74
2022/02/21 08:09:40;;;;;;;18.35;8.93;;;;;;;8.54;64.49;93586.16;5063052;28;20025;-74
2022/02/21 08:12:08;;;;;;;16.67;9.00;;;;;;;8.59;64.50;93586.03;5063143;28;20041;-76
2022/02/21 08:14:35;;;;;;;21.10;9.07;;;;;;;8.62;64.57;93576.66;5063214;28;20082;-76
2022/02/21 08:17:00;;;;;;;15.57;7.65;;;;;;;8.64;64.21;93591.19;5063186;28;20033;-76
2022/02/21 08:19:26;;;;;;;14.23;6.38;;;;;;;8.66;63.57;93568.84;5063216;28;20035;-74
2022/02/21 08:21:52;;;;;;;12.32;6.65;;;;;;;8.71;63.76;93568.69;5063170;28;20091;-74
2022/02/21 08:24:18;;;;;;;19.33;7.13;;;;;;;8.80;63.76;93578.28;5095203;28;20035;-76
2022/02/21 08:26:43;;;;;;;12.38;6.32;;;;;;;8.90;63.50;93563.91;5062736;28;20393;-75
2022/02/21 08:29:09;;;;;;;16.88;5.90;;;;;;;9.02;63.32;93558.78;5062850;28;20088;-78
2022/02/21 08:31:34;;;;;;;10.57;6.13;;;;;;;9.17;63.02;93551.44;5062612;28;20032;-77
2022/02/21 08:34:00;;;;;;;149.38;71.82;;;;;;;9.31;61.55;93564.63;5062984;28;20222;-76
2022/02/21 08:36:26;;;;;;;16.15;9.32;;;;;;;9.34;61.82;93556.00;5062749;28;20119;-76
2022/02/21 08:38:52;;;;;;;22.45;9.40;;;;;;;9.49;62.04;93542.25;5064659;28;20017;-76
2022/02/21 08:41:20;;;;;;;15.48;6.95;;;;;;;9.62;61.56;93545.84;5063744;28;20043;-76
2022/02/21 08:43:46;;;;;;;22.10;7.78;;;;;;;9.12;61.15;93547.06;5063963;28;20214;-76
2022/02/21 08:46:11;;;;;;;32.00;15.75;;;;;;;9.30;60.75;93539.91;5065151;28;20088;-76
2022/02/21 08:48:37;;;;;;;44.85;20.77;;;;;;;9.46;61.02;93534.88;5063553;28;20021;-76
2022/02/21 08:51:03;;;;;;;24.20;11.10;;;;;;;9.66;60.98;93530.03;5063341;28;20065;-76
2022/02/21 08:53:29;;;;;;;20.58;7.50;;;;;;;9.87;61.24;93522.16;5063120;28;20017;-77
2022/02/21 08:55:54;;;;;;;122.03;55.88;;;;;;;10.04;60.21;93522.91;5062624;28;20123;-76
2022/02/21 08:58:20;;;;;;;28.65;14.48;;;;;;;9.99;60.16;93506.31;5063502;28;20090;-76
2022/02/21 09:00:45;;;;;;;17.65;8.05;;;;;;;10.14;59.96;93503.16;5063315;28;20083;-76
2022/02/21 09:03:11;;;;;;;26.08;8.88;;;;;;;10.28;59.23;93504.81;5063083;28;20096;-76
2022/02/21 09:05:36;;;;;;;14.48;6.93;;;;;;;10.37;59.15;93510.94;5062279;28;20200;-78
2022/02/21 09:08:05;;;;;;;11.90;6.55;;;;;;;10.51;58.51;93497.41;5062405;28;20380;-76
2022/02/21 09:10:32;;;;;;;16.30;6.72;;;;;;;10.59;58.33;93499.25;5062427;28;20028;-76
2022/02/21 09:12:59;;;;;;;62.28;37.72;;;;;;;10.61;57.58;93507.69;5061984;28;20108;-75
2022/02/21 09:15:24;;;;;;;297.08;152.52;;;;;;;10.68;58.08;93496.53;5062364;28;20044;-77
2022/02/21 09:17:51;;;;;;;39.38;20.73;;;;;;;10.69;57.95;93493.53;5062366;28;20024;-76
2022/02/21 09:20:16;;;;;;;123.57;65.72;;;;;;;10.64;57.08;93481.19;5062249;28;20200;-75
2022/02/21 09:22:42;;;;;;;25.95;14.55;;;;;;;10.51;57.48;93487.53;5062132;28;20028;-73
2022/02/21 09:25:09;;;;;;;17.83;7.55;;;;;;;10.46;57.58;93485.03;5061861;28;20059;-73
2022/02/21 09:27:35;;;;;;;15.77;7.70;;;;;;;10.46;58.03;93470.94;5061817;28;20311;-73
2022/02/21 09:30:03;;;;;;;22.25;8.35;;;;;;;10.55;57.02;93469.78;5062322;28;20033;-73
2022/02/21 09:32:29;;;;;;;16.48;8.98;;;;;;;10.57;57.26;93464.91;5062464;28;20055;-73
2022/02/21 09:34:55;;;;;;;26.20;11.82;;;;;;;10.56;57.78;93468.69;5062158;28;20020;-73
2022/02/21 09:37:21;;;;;;;14.45;9.10;;;;;;;10.53;56.65;93457.91;5062529;28;20201;-74
2022/02/21 09:39:46;;;;;;;21.92;10.85;;;;;;;10.49;57.45;93452.41;5060846;28;20315;-76
2022/02/21 09:42:12;;;;;;;94.22;40.70;;;;;;;10.55;57.88;93466.34;5062120;28;20315;-77
2022/02/21 09:44:38;;;;;;;28.80;15.93;;;;;;;10.54;58.13;93446.91;5062407;28;20096;-74
2022/02/21 09:47:05;;;;;;;29.65;12.98;;;;;;;10.71;58.72;93445.25;5062162;28;20021;-75
2022/02/21 09:49:31;;;;;;;32.13;13.93;;;;;;;10.85;57.76;93445.78;5062209;28;20044;-75
2022/02/21 09:51:57;;;;;;;27.33;12.05;;;;;;;10.97;57.62;93443.19;5061916;28;20426;-73
2022/02/21 09:54:24;;;;;;;13.95;9.23;;;;;;;11.14;57.01;93442.25;5062262;28;20284;-75
2022/02/21 09:56:51;;;;;;;17.58;8.55;;;;;;;11.35;56.94;93438.78;5061840;28;20040;-74
2022/02/21 09:59:18;;;;;;;18.60;9.07;;;;;;;11.54;56.20;93430.28;5060537;28;20020;-74
2022/02/21 10:01:47;;;;;;;25.27;9.60;;;;;;;11.67;55.27;93426.56;5061897;28;20028;-75
2022/02/21 10:04:20;;;;;;;18.90;10.80;;;;;;;11.72;54.61;93421.00;5061758;28;20021;-81
2022/02/21 10:06:49;;;;;;;26.40;12.40;;;;;;;11.82;54.37;93403.78;5061953;28;21203;-80
2022/02/21 10:09:15;;;;;;;26.33;11.57;;;;;;;11.90;54.95;93405.59;5061886;28;20315;-81
2022/02/21 10:11:43;;;;;;;20.90;11.23;;;;;;;12.04;54.28;93407.97;5061788;28;20059;-80
2022/02/21 10:14:18;;;;;;;26.88;11.23;;;;;;;12.07;53.11;93401.97;5061594;28;20029;-77
2022/02/21 10:16:49;;;;;;;34.05;14.00;;;;;;;12.19;53.58;93390.47;5060518;28;20033;-81
2022/02/21 10:19:28;;;;;;;23.85;10.35;;;;;;;12.28;53.97;93390.41;5062028;28;20062;-81
2022/02/21 10:22:01;;;;;;;28.23;13.32;;;;;;;12.52;52.33;93400.28;5061807;28;20024;-84
2022/02/21 10:24:48;;;;;;;17.95;11.20;;;;;;;12.75;52.37;93369.25;5062259;28;20032;-83
2022/02/21 10:27:16;;;;;;;20.13;9.30;;;;;;;12.84;50.77;93371.81;5064994;28;20029;-82
2022/02/21 10:30:05;;;;;;;19.17;9.07;;;;;;;12.87;50.58;93360.44;5065165;28;20021;-79
2022/02/21 10:32:38;;;;;;;27.02;9.98;;;;;;;13.03;51.50;93347.91;5065000;28;20073;-76
2022/02/21 10:35:20;;;;;;;23.77;9.10;;;;;;;13.34;51.68;93348.34;5063755;28;20119;-80
2022/02/21 10:38:02;;;;;;;28.42;8.80;;;;;;;13.61;50.93;93338.72;5064971;28;20009;-77
2022/02/21 10:40:38;;;;;;;28.15;10.75;;;;;;;13.85;49.73;93338.56;5063649;28;20029;-78
2022/02/21 10:43:17;;;;;;;20.65;9.75;;;;;;;14.03;48.59;93327.50;5065100;28;20032;-80
2022/02/21 10:45:45;;;;;;;17.80;8.27;;;;;;;14.17;47.58;93322.47;5065009;28;20025;-81
2022/02/21 10:48:16;;;;;;;28.88;9.13;;;;;;;14.27;47.35;93323.03;5064623;28;20275;-81
2022/02/21 10:51:03;;;;;;;29.20;9.18;;;;;;;14.40;46.44;93319.13;5064797;28;20048;-79
2022/02/21 10:53:44;;;;;;;22.38;9.10;;;;;;;14.54;47.16;93300.66;5065006;28;20021;-81
2022/02/21 10:56:11;;;;;;;32.35;7.97;;;;;;;14.70;47.07;93291.84;5064963;28;20075;-78
2022/02/21 10:58:37;;;;;;;27.98;9.68;;;;;;;14.85;46.23;93286.38;5063511;28;20021;-85
2022/02/21 11:01:03;;;;;;;22.75;8.27;;;;;;;14.91;45.88;93289.56;5064662;28;20425;-84
2022/02/21 11:03:29;;;;;;;38.65;10.95;;;;;;;14.94;45.46;93282.69;5064487;28;20017;-85
2022/02/21 11:05:58;;;;;;;17.20;7.80;;;;;;;15.02;45.41;93279.81;5064556;28;20035;-85
2022/02/21 11:08:27;;;;;;;24.00;8.40;;;;;;;15.08;44.63;93266.09;5064495;28;20031;-85
2022/02/21 11:10:58;;;;;;;21.48;7.75;;;;;;;15.10;44.82;93264.63;5063274;28;20033;-85
2022/02/21 11:13:25;;;;;;;16.33;7.13;;;;;;;15.21;44.78;93259.44;5064533;28;20045;-85
2022/02/21 11:15:52;;;;;;;19.52;7.63;;;;;;;15.21;44.03;93248.72;5064449;28;20032;-84
2022/02/21 11:18:19;;;;;;;20.98;8.45;;;;;;;15.24;44.37;93247.97;5063053;28;20032;-85
2022/02/21 11:20:45;;;;;;;31.95;8.07;;;;;;;15.29;43.81;93238.88;5064344;28;20028;-84
2022/02/21 11:23:11;;;;;;;14.65;7.40;;;;;;;15.31;44.03;93232.00;5064319;28;20021;-86
2022/02/21 11:25:44;;;;;;;18.52;8.05;;;;;;;15.33;43.38;93220.91;5064110;28;20028;-80
2022/02/21 11:28:34;;;;;;;20.30;6.85;;;;;;;15.33;43.51;93229.75;5062951;28;20032;-82
2022/02/21 11:31:02;;;;;;;18.25;6.93;;;;;;;15.30;43.00;93230.44;5063885;28;20096;-77